Saint Martin Island, Guadeloupe
Current Conditions -  °F | °C
As of 8:00 AM on Wednesday 22 Oct 2014 (Local Time) from TNCM Reporting Station
Scattered Clouds Scattered Clouds  
Wind Chill: 84°   Ceiling: Unl
Heat Index: 91°   Visibility: 6mi
Dew Point: 73°   Wind: 9mph
Humidity: 70%   Direction: 90°E
Pressure: 29.97"   Gusts: NA
Location:  18.09°N, 63.05°W
Report Text: TNCM 221200Z 09008KT 070V130 9999 SCT022 29/23 Q1015 A3000 NOSIG RMK TCU ESE
Loading
Personal Weather Stations






























Interactive Weather Map
Tropical Storm Tracking
New forecast layout! Learn more

10-Day Weather Forecast

Advertisements
Track Severe Weather on mobile